createdAt,value
2024-05-09T00:00:31.188Z,7.0
2024-05-09T00:00:59.680Z,7.0
2024-05-09T00:01:30.661Z,6.0
2024-05-09T00:02:01.677Z,6.0
2024-05-09T00:02:32.672Z,6.0
2024-05-09T00:03:03.658Z,6.0
2024-05-09T00:03:34.639Z,6.0
2024-05-09T00:04:05.726Z,5.3
2024-05-09T00:04:36.666Z,5.3
2024-05-09T00:05:07.736Z,5.3
2024-05-09T00:05:38.781Z,5.3
2024-05-09T00:06:09.786Z,5.3
2024-05-09T00:06:40.636Z,5.3
2024-05-09T00:07:11.659Z,5.2
2024-05-09T00:07:42.699Z,5.2
2024-05-09T00:08:13.675Z,5.2
2024-05-09T00:08:44.670Z,5.2
2024-05-09T00:09:46.655Z,5.2
2024-05-09T00:10:22.229Z,5.0
2024-05-09T00:10:48.724Z,5.0
2024-05-09T00:11:50.751Z,5.0
2024-05-09T00:12:21.783Z,5.0
2024-05-09T00:12:52.670Z,5.0
2024-05-09T00:13:23.656Z,6.6
2024-05-09T00:13:54.698Z,6.6
2024-05-09T00:14:25.765Z,6.6
2024-05-09T00:15:27.662Z,6.6
2024-05-09T00:15:58.647Z,6.6
2024-05-09T00:16:29.651Z,5.6
2024-05-09T00:17:31.947Z,5.6
2024-05-09T00:18:03.110Z,5.6
2024-05-09T00:18:33.688Z,5.6
2024-05-09T00:19:04.704Z,7.9
2024-05-09T00:19:35.691Z,7.9
2024-05-09T00:20:13.937Z,7.9
2024-05-09T00:21:08.812Z,7.9
2024-05-09T00:21:39.648Z,7.9
2024-05-09T00:22:10.642Z,6.5
2024-05-09T00:22:41.648Z,6.5
2024-05-09T00:23:13.290Z,6.5
2024-05-09T00:23:43.680Z,6.5
2024-05-09T00:24:14.659Z,6.5
2024-05-09T00:24:45.652Z,6.5
2024-05-09T00:25:16.673Z,6.4
2024-05-09T00:25:47.710Z,6.4
2024-05-09T00:26:18.713Z,6.4
2024-05-09T00:26:49.657Z,6.4
2024-05-09T00:27:20.658Z,6.4
2024-05-09T00:27:51.663Z,6.4
2024-05-09T00:28:22.672Z,8.1
2024-05-09T00:28:53.703Z,8.1
2024-05-09T00:29:55.666Z,8.1
2024-05-09T00:30:31.268Z,8.1
2024-05-09T00:30:57.659Z,8.1
2024-05-09T00:31:59.701Z,7.4
2024-05-09T00:32:30.745Z,7.4
2024-05-09T00:33:01.770Z,7.4
2024-05-09T00:33:32.785Z,7.4
2024-05-09T00:34:03.699Z,7.3
2024-05-09T00:34:34.711Z,7.3
2024-05-09T00:35:05.673Z,7.3
2024-05-09T00:35:36.735Z,7.3
2024-05-09T00:36:07.663Z,7.3
2024-05-09T00:36:38.665Z,7.3
2024-05-09T00:37:40.663Z,5.1
2024-05-09T00:38:11.760Z,5.1
2024-05-09T00:38:42.723Z,5.1
2024-05-09T00:39:13.667Z,5.1
2024-05-09T00:39:44.680Z,5.1
2024-05-09T00:40:22.258Z,6.3
2024-05-09T00:40:46.703Z,6.3
2024-05-09T00:41:19.634Z,6.3
2024-05-09T00:41:48.826Z,6.3
2024-05-09T00:42:19.673Z,6.3
2024-05-09T00:42:50.664Z,6.3
2024-05-09T00:43:52.710Z,5.7
2024-05-09T00:44:23.749Z,5.7
2024-05-09T00:44:54.678Z,5.7
2024-05-09T00:45:56.679Z,5.7
2024-05-09T00:46:27.666Z,7.6
2024-05-09T00:46:58.708Z,7.6
2024-05-09T00:47:29.763Z,7.6
2024-05-09T00:48:00.959Z,7.6
2024-05-09T00:48:31.831Z,7.6
2024-05-09T00:49:02.750Z,6.4
2024-05-09T00:49:33.752Z,6.4
2024-05-09T00:50:07.564Z,6.4
2024-05-09T00:50:36.753Z,6.4
2024-05-09T00:51:06.766Z,6.4
2024-05-09T00:51:37.671Z,6.4
2024-05-09T00:52:08.665Z,5.1
2024-05-09T00:52:39.669Z,5.1
2024-05-09T00:53:10.705Z,5.1
2024-05-09T00:53:41.699Z,5.1
2024-05-09T00:54:12.658Z,5.1
2024-05-09T00:54:43.667Z,5.1
2024-05-09T00:55:14.665Z,5.6
2024-05-09T00:55:45.686Z,5.6
2024-05-09T00:56:16.672Z,5.6
2024-05-09T00:56:47.667Z,5.6
2024-05-09T00:57:18.680Z,5.6
2024-05-09T00:57:49.673Z,5.6
2024-05-09T00:58:51.693Z,6.7
2024-05-09T00:59:22.784Z,6.7
2024-05-09T00:59:53.676Z,6.7
2024-05-09T01:00:27.088Z,6.7
2024-05-09T01:00:55.684Z,6.7
2024-05-09T01:01:26.685Z,6.1
2024-05-09T01:01:57.794Z,6.1
2024-05-09T01:02:28.847Z,6.1
2024-05-09T01:02:59.724Z,6.1
2024-05-09T01:03:30.800Z,6.1
2024-05-09T01:04:32.711Z,5.7
2024-05-09T01:05:03.750Z,5.7
2024-05-09T01:06:36.695Z,5.7
2024-05-09T01:07:07.673Z,6.2
2024-05-09T01:07:38.670Z,6.2
2024-05-09T01:08:09.944Z,6.2
2024-05-09T01:08:40.757Z,6.2
2024-05-09T01:09:11.683Z,6.2
2024-05-09T01:10:17.246Z,6.7
2024-05-09T01:10:45.987Z,6.7
2024-05-09T01:11:15.904Z,6.7
2024-05-09T01:11:46.747Z,6.7
2024-05-09T01:12:17.721Z,6.7
2024-05-09T01:12:48.697Z,6.7
2024-05-09T01:13:50.688Z,6.7
2024-05-09T01:14:21.712Z,6.7
2024-05-09T01:14:52.684Z,6.7
2024-05-09T01:15:23.686Z,6.7
2024-05-09T01:15:54.686Z,6.7
2024-05-09T01:16:25.694Z,5.9
2024-05-09T01:16:56.717Z,5.9
2024-05-09T01:17:27.815Z,5.9
2024-05-09T01:17:58.776Z,5.9
2024-05-09T01:18:29.729Z,5.9
2024-05-09T01:19:00.816Z,8.3
2024-05-09T01:19:31.838Z,8.3
2024-05-09T01:20:03.358Z,7.9
2024-05-09T01:20:39.504Z,7.9
2024-05-09T01:21:04.745Z,7.9
2024-05-09T01:22:06.736Z,6.1
2024-05-09T01:22:37.694Z,6.1
2024-05-09T01:23:08.859Z,5.7
2024-05-09T01:23:39.715Z,5.7
2024-05-09T01:24:10.716Z,5.7
2024-05-09T01:24:41.716Z,5.7
2024-05-09T01:25:12.721Z,5.9
2024-05-09T01:25:43.857Z,5.9
2024-05-09T01:26:14.735Z,6.2
2024-05-09T01:26:45.742Z,6.2
2024-05-09T01:27:16.716Z,6.2
2024-05-09T01:27:47.733Z,6.2
2024-05-09T01:28:18.723Z,5.5
2024-05-09T01:28:49.751Z,5.5
2024-05-09T01:29:20.730Z,5.8
2024-05-09T01:29:51.724Z,5.8
2024-05-09T01:30:27.771Z,5.8
2024-05-09T01:30:53.722Z,5.8
2024-05-09T01:31:55.794Z,4.4
2024-05-09T01:32:26.871Z,7.6
2024-05-09T01:32:57.844Z,7.6
2024-05-09T01:35:36.917Z,6.6
2024-05-09T01:36:03.723Z,6.6
2024-05-09T01:37:05.783Z,6.6
2024-05-09T01:38:07.856Z,8.1
2024-05-09T01:38:38.776Z,8.1
2024-05-09T01:39:09.748Z,8.1
2024-05-09T01:40:14.974Z,8.1
2024-05-09T01:40:42.729Z,8.1
2024-05-09T01:41:13.815Z,7.0
2024-05-09T01:42:15.735Z,7.0
2024-05-09T01:42:46.759Z,7.0
2024-05-09T01:44:19.866Z,6.5
2024-05-09T01:44:50.752Z,6.5
2024-05-09T01:45:21.761Z,6.5
2024-05-09T01:45:52.754Z,6.5
2024-05-09T01:46:23.732Z,6.5
2024-05-09T01:46:54.762Z,6.5
2024-05-09T01:47:25.896Z,6.6
2024-05-09T01:47:56.870Z,6.6
2024-05-09T01:48:27.801Z,6.6
2024-05-09T01:48:58.842Z,6.6
2024-05-09T01:49:29.890Z,6.6
2024-05-09T01:50:00.885Z,7.6
2024-05-09T01:51:02.811Z,7.6
2024-05-09T01:51:33.754Z,7.6
2024-05-09T01:52:04.757Z,7.6
2024-05-09T01:52:35.759Z,7.6
2024-05-09T01:53:06.886Z,7.5
2024-05-09T01:53:37.781Z,7.5
2024-05-09T01:54:08.741Z,7.5
2024-05-09T01:54:39.755Z,7.5
2024-05-09T01:55:10.757Z,7.5
2024-05-09T01:55:42.127Z,7.5
2024-05-09T01:56:12.767Z,5.7
2024-05-09T01:56:43.769Z,5.7
2024-05-09T01:57:14.762Z,5.7
2024-05-09T01:57:45.764Z,5.7
2024-05-09T01:58:16.763Z,5.7
2024-05-09T01:58:47.765Z,5.7
2024-05-09T01:59:18.780Z,6.3
2024-05-09T01:59:49.762Z,6.3
2024-05-09T02:00:26.208Z,6.3
2024-05-09T02:00:51.788Z,6.3
2024-05-09T02:01:22.858Z,6.3
2024-05-09T02:01:55.256Z,6.3
2024-05-09T02:02:24.789Z,5.9
2024-05-09T02:02:55.845Z,5.9
2024-05-09T02:03:26.855Z,5.9
2024-05-09T02:03:57.861Z,5.9
2024-05-09T02:04:28.885Z,5.9
2024-05-09T02:04:59.828Z,5.9
2024-05-09T02:06:01.922Z,6.5
2024-05-09T02:06:32.782Z,6.5
2024-05-09T02:07:03.778Z,6.5
2024-05-09T02:07:34.772Z,6.5
2024-05-09T02:08:05.799Z,5.8
2024-05-09T02:08:36.850Z,5.8
2024-05-09T02:09:07.784Z,5.8
2024-05-09T02:10:13.978Z,5.8
2024-05-09T02:10:40.851Z,5.8
2024-05-09T02:11:11.881Z,6.5
2024-05-09T02:12:13.854Z,6.5
2024-05-09T02:12:44.805Z,6.5
2024-05-09T02:13:46.788Z,6.5
2024-05-09T02:14:17.806Z,6.5
2024-05-09T02:14:48.786Z,6.5
2024-05-09T02:15:19.770Z,6.5
2024-05-09T02:15:50.790Z,6.5
2024-05-09T02:16:21.775Z,6.5
2024-05-09T02:16:52.798Z,6.5
2024-05-09T02:17:55.271Z,6.1
2024-05-09T02:18:25.848Z,6.2
2024-05-09T02:18:56.913Z,6.2
2024-05-09T02:19:58.811Z,6.2
2024-05-09T02:20:33.512Z,10.2
2024-05-09T02:21:01.000Z,10.1
2024-05-09T02:22:02.782Z,10.1
2024-05-09T02:22:33.797Z,10.1
2024-05-09T02:23:35.827Z,6.5
2024-05-09T02:24:06.812Z,6.7
2024-05-09T02:24:37.790Z,6.7
2024-05-09T02:25:08.813Z,6.7
2024-05-09T02:25:39.803Z,6.7
2024-05-09T02:26:10.811Z,6.1
2024-05-09T02:26:41.804Z,6.1
2024-05-09T02:27:12.777Z,6.8
2024-05-09T02:27:43.792Z,6.8
2024-05-09T02:28:45.799Z,6.8
2024-05-09T02:29:16.812Z,6.7
2024-05-09T02:29:47.783Z,6.7
2024-05-09T02:30:22.870Z,7.5
2024-05-09T02:30:49.792Z,7.5
2024-05-09T02:31:20.798Z,7.5
2024-05-09T02:32:22.855Z,7.9
2024-05-09T02:32:53.966Z,7.9
2024-05-09T02:33:24.940Z,7.9
2024-05-09T02:33:55.910Z,7.9
2024-05-09T02:34:26.905Z,7.9
2024-05-09T02:34:57.837Z,7.9
2024-05-09T02:35:59.803Z,8.9
2024-05-09T02:36:30.789Z,8.6
2024-05-09T02:37:01.802Z,8.6
2024-05-09T02:38:03.843Z,17.9
2024-05-09T02:38:34.855Z,17.9
2024-05-09T02:39:05.810Z,9.1
2024-05-09T02:39:36.808Z,9.1
2024-05-09T02:40:11.558Z,9.1
2024-05-09T02:40:39.535Z,9.1
2024-05-09T02:41:09.812Z,6.0
2024-05-09T02:41:40.801Z,6.0
2024-05-09T02:42:11.795Z,7.2
2024-05-09T02:42:42.808Z,7.2
2024-05-09T02:43:44.841Z,7.2
2024-05-09T02:44:15.837Z,7.2
2024-05-09T02:44:46.795Z,7.2
2024-05-09T02:45:48.812Z,8.3
2024-05-09T02:46:19.789Z,8.3
2024-05-09T02:46:50.813Z,8.3
2024-05-09T02:47:21.934Z,8.3
2024-05-09T02:47:52.996Z,8.3
2024-05-09T02:48:23.861Z,8.2
2024-05-09T02:48:54.908Z,8.2
2024-05-09T02:49:56.828Z,8.2
2024-05-09T02:50:30.527Z,8.2
2024-05-09T02:50:58.872Z,8.2
2024-05-09T02:52:00.809Z,6.3
2024-05-09T02:52:31.812Z,6.3
2024-05-09T02:53:02.838Z,6.3
2024-05-09T02:54:04.814Z,6.1
2024-05-09T02:54:35.824Z,6.1
2024-05-09T02:55:06.825Z,6.1
2024-05-09T02:56:08.806Z,6.1
2024-05-09T02:56:39.836Z,6.1
2024-05-09T02:57:10.818Z,7.8
2024-05-09T02:57:41.839Z,7.8
2024-05-09T02:58:12.830Z,7.8
2024-05-09T02:58:43.837Z,7.8
2024-05-09T02:59:14.909Z,7.8
2024-05-09T02:59:45.838Z,7.8
2024-05-09T03:00:18.953Z,8.2
2024-05-09T03:00:47.868Z,8.2
2024-05-09T03:01:49.883Z,8.2
2024-05-09T03:02:20.939Z,8.2
2024-05-09T03:02:51.937Z,8.2
2024-05-09T03:03:23.025Z,7.5
2024-05-09T03:03:53.907Z,7.5
2024-05-09T03:04:24.845Z,7.5
2024-05-09T03:05:26.876Z,7.5
2024-05-09T03:05:57.854Z,7.5
2024-05-09T03:06:28.846Z,7.9
2024-05-09T03:07:30.854Z,7.9
2024-05-09T03:08:01.888Z,7.9
2024-05-09T03:08:32.838Z,7.9
2024-05-09T03:09:34.836Z,6.8
2024-05-09T03:10:09.608Z,6.8
2024-05-09T03:10:37.901Z,6.8
2024-05-09T03:11:38.876Z,6.8
2024-05-09T03:12:09.908Z,6.3
2024-05-09T03:12:40.867Z,6.3
2024-05-09T03:13:42.838Z,6.3
2024-05-09T03:14:13.914Z,6.3
2024-05-09T03:14:44.842Z,6.3
2024-05-09T03:15:15.829Z,7.5
2024-05-09T03:15:46.882Z,7.5
2024-05-09T03:16:17.832Z,7.5
2024-05-09T03:16:48.859Z,7.5
2024-05-09T03:17:50.940Z,7.5
2024-05-09T03:18:21.909Z,8.5
2024-05-09T03:18:52.895Z,8.5
2024-05-09T03:19:54.881Z,8.5
2024-05-09T03:20:30.485Z,8.5
2024-05-09T03:20:56.862Z,8.5
2024-05-09T03:21:27.840Z,6.7
2024-05-09T03:21:58.855Z,6.7
2024-05-09T03:22:29.859Z,6.7
2024-05-09T03:23:00.867Z,6.7
2024-05-09T03:23:31.884Z,6.7
2024-05-09T03:24:02.854Z,10.6
2024-05-09T03:24:33.861Z,10.6
2024-05-09T03:25:04.883Z,10.6
2024-05-09T03:25:36.036Z,10.6
2024-05-09T03:26:06.951Z,10.6
2024-05-09T03:26:37.880Z,10.6
2024-05-09T03:27:08.845Z,6.4
2024-05-09T03:27:39.859Z,6.4
2024-05-09T03:28:41.858Z,6.4
2024-05-09T03:29:12.905Z,6.4
2024-05-09T03:29:43.850Z,6.4
2024-05-09T03:30:25.482Z,8.3
2024-05-09T03:30:45.870Z,8.3
2024-05-09T03:31:16.853Z,8.3
2024-05-09T03:31:47.946Z,8.3
2024-05-09T03:32:49.934Z,8.3
2024-05-09T03:33:21.309Z,9.4
2024-05-09T03:33:51.955Z,9.4
2024-05-09T03:34:22.863Z,9.4
2024-05-09T03:34:53.888Z,9.4
2024-05-09T03:35:24.993Z,9.4
2024-05-09T03:35:55.855Z,9.4
2024-05-09T03:36:26.865Z,7.6
2024-05-09T03:36:57.873Z,7.6
2024-05-09T03:37:28.862Z,7.6
2024-05-09T03:38:31.135Z,7.6
2024-05-09T03:39:01.867Z,8.5
2024-05-09T03:39:32.870Z,8.5
2024-05-09T03:40:04.223Z,8.5
2024-05-09T03:40:34.882Z,8.5
2024-05-09T03:41:05.879Z,8.5
2024-05-09T03:41:36.983Z,8.5
2024-05-09T03:42:07.859Z,11.5
2024-05-09T03:42:38.863Z,11.5
2024-05-09T03:44:11.944Z,11.5
2024-05-09T03:44:42.864Z,11.5
2024-05-09T03:45:13.861Z,7.3
2024-05-09T03:46:15.875Z,7.3
2024-05-09T03:46:46.909Z,7.3
2024-05-09T03:47:17.949Z,7.3
2024-05-09T03:48:20.200Z,8.3
2024-05-09T03:48:50.941Z,8.3
2024-05-09T03:49:22.228Z,8.3
2024-05-09T03:49:52.895Z,8.3
2024-05-09T03:50:26.042Z,8.3
2024-05-09T03:50:54.938Z,8.3
2024-05-09T03:51:56.872Z,9.1
2024-05-09T03:52:27.867Z,9.1
2024-05-09T03:52:58.899Z,9.1
2024-05-09T03:53:29.947Z,9.1
2024-05-09T03:54:00.872Z,8.6
2024-05-09T03:54:31.894Z,8.6
2024-05-09T03:55:02.886Z,8.6
2024-05-09T03:55:33.921Z,8.6
2024-05-09T03:56:04.917Z,8.6
2024-05-09T03:56:35.939Z,8.6
2024-05-09T03:57:06.926Z,9.3
2024-05-09T03:57:37.893Z,9.3
2024-05-09T03:58:39.903Z,9.3
2024-05-09T03:59:10.973Z,9.3
2024-05-09T03:59:41.872Z,9.3
2024-05-09T04:00:17.604Z,7.3
2024-05-09T04:00:43.938Z,7.3
2024-05-09T04:01:14.940Z,7.3
2024-05-09T04:01:46.050Z,7.3
2024-05-09T04:02:16.917Z,7.3
2024-05-09T04:02:47.942Z,7.3
2024-05-09T04:03:19.110Z,7.5
2024-05-09T04:03:49.967Z,7.5
2024-05-09T04:04:20.906Z,7.5
2024-05-09T04:04:51.986Z,7.5
2024-05-09T04:05:22.910Z,7.5
2024-05-09T04:05:53.941Z,7.5
2024-05-09T04:06:24.890Z,9.4
2024-05-09T04:06:55.895Z,9.4
2024-05-09T04:07:26.910Z,9.4
2024-05-09T04:07:57.945Z,9.4
2024-05-09T04:08:28.935Z,9.4
2024-05-09T04:08:59.907Z,9.4
2024-05-09T04:09:30.924Z,9.4
2024-05-09T04:10:02.219Z,9.4
2024-05-09T04:10:34.014Z,9.4
2024-05-09T04:11:35.012Z,9.4
2024-05-09T04:12:05.980Z,11.7
2024-05-09T04:12:36.949Z,11.7
2024-05-09T04:13:07.910Z,11.7
2024-05-09T04:13:38.906Z,11.7
2024-05-09T04:14:09.941Z,11.7
2024-05-09T04:14:40.941Z,11.7
2024-05-09T04:15:13.211Z,8.2
2024-05-09T04:15:42.935Z,8.2
2024-05-09T04:16:13.912Z,8.2
2024-05-09T04:16:44.916Z,8.2
2024-05-09T04:17:15.965Z,8.2
2024-05-09T04:17:47.029Z,8.2
2024-05-09T04:18:18.077Z,8.1
2024-05-09T04:18:49.423Z,8.1
2024-05-09T04:19:20.019Z,8.1
2024-05-09T04:19:50.961Z,8.1
2024-05-09T04:20:52.955Z,8.1
2024-05-09T04:21:23.908Z,8.9
2024-05-09T04:21:54.913Z,8.9
2024-05-09T04:22:25.914Z,8.9
2024-05-09T04:23:27.935Z,8.9
2024-05-09T04:23:58.926Z,8.9
2024-05-09T04:24:29.904Z,9.3
2024-05-09T04:25:00.933Z,9.3
2024-05-09T04:25:31.933Z,9.3
2024-05-09T04:26:02.935Z,9.3
2024-05-09T04:26:33.936Z,9.3
2024-05-09T04:27:04.904Z,10.2
2024-05-09T04:27:35.910Z,10.2
2024-05-09T04:28:37.905Z,10.2
2024-05-09T04:29:08.931Z,10.2
2024-05-09T04:29:39.938Z,10.2
2024-05-09T04:30:15.245Z,8.0
2024-05-09T04:31:12.915Z,8.0
2024-05-09T04:31:44.088Z,8.0
2024-05-09T04:32:14.979Z,8.0
2024-05-09T04:33:17.004Z,7.4
2024-05-09T04:33:48.060Z,7.4
2024-05-09T04:34:18.952Z,7.0
2024-05-09T04:34:49.982Z,7.0
2024-05-09T04:35:20.971Z,7.0
2024-05-09T04:35:51.913Z,7.0
2024-05-09T04:36:22.939Z,6.3
2024-05-09T04:36:53.928Z,6.3
2024-05-09T04:37:24.916Z,6.7
2024-05-09T04:37:55.920Z,6.7
2024-05-09T04:38:26.997Z,6.7
2024-05-09T04:38:57.918Z,6.7
2024-05-09T04:39:28.926Z,6.7
2024-05-09T04:39:59.915Z,6.7
2024-05-09T04:40:32.945Z,6.8
2024-05-09T04:41:02.016Z,6.8
2024-05-09T04:41:32.937Z,6.8
2024-05-09T04:42:03.954Z,9.8
2024-05-09T04:42:34.915Z,9.8
2024-05-09T04:43:36.935Z,10.0
2024-05-09T04:44:07.961Z,10.0
2024-05-09T04:44:38.930Z,10.0
2024-05-09T04:45:09.926Z,7.7
2024-05-09T04:45:40.932Z,7.7
2024-05-09T04:46:11.917Z,7.8
2024-05-09T04:46:42.921Z,7.8
2024-05-09T04:47:14.110Z,7.8
2024-05-09T04:47:45.037Z,7.8
2024-05-09T04:48:16.055Z,6.8
2024-05-09T04:48:46.994Z,6.8
2024-05-09T04:49:18.110Z,7.4
2024-05-09T04:49:48.962Z,7.4
2024-05-09T04:50:50.959Z,7.4
2024-05-09T04:51:52.925Z,7.4
2024-05-09T04:52:23.934Z,7.1
2024-05-09T04:52:54.940Z,7.1
2024-05-09T04:53:25.946Z,7.1
2024-05-09T04:53:56.933Z,7.1
2024-05-09T04:54:33.425Z,7.1
2024-05-09T04:54:59.089Z,7.1
2024-05-09T04:55:29.949Z,8.0
2024-05-09T04:56:01.036Z,8.0
2024-05-09T04:56:32.015Z,8.0
2024-05-09T04:57:02.959Z,8.0
2024-05-09T04:58:04.949Z,7.9
2024-05-09T04:58:35.951Z,7.9
2024-05-09T04:59:07.014Z,7.9
2024-05-09T05:00:14.304Z,7.9
2024-05-09T05:00:40.645Z,7.9
2024-05-09T05:01:11.081Z,7.9
2024-05-09T05:02:13.044Z,7.9
2024-05-09T05:02:44.006Z,7.9
2024-05-09T05:03:15.778Z,7.9
2024-05-09T05:04:17.044Z,7.6
2024-05-09T05:04:48.017Z,7.6
2024-05-09T05:05:49.970Z,7.6
2024-05-09T05:06:20.965Z,7.6
2024-05-09T05:06:51.952Z,7.6
2024-05-09T05:07:22.962Z,10.3
2024-05-09T05:07:53.984Z,10.3
2024-05-09T05:08:24.986Z,10.3
2024-05-09T05:08:55.961Z,10.3
2024-05-09T05:09:26.968Z,10.3
2024-05-09T05:10:29.635Z,6.8
2024-05-09T05:11:00.038Z,6.8
2024-05-09T05:11:31.034Z,6.8
2024-05-09T05:12:02.072Z,6.8
2024-05-09T05:12:33.025Z,6.8
2024-05-09T05:13:36.700Z,9.7
2024-05-09T05:14:06.001Z,9.7
2024-05-09T05:14:37.011Z,9.7
2024-05-09T05:15:07.976Z,9.7
2024-05-09T05:15:38.966Z,9.7
2024-05-09T05:16:09.982Z,7.7
2024-05-09T05:16:40.976Z,7.7
2024-05-09T05:17:12.032Z,7.7
2024-05-09T05:17:43.122Z,7.7
2024-05-09T05:18:14.023Z,7.7
2024-05-09T05:18:45.095Z,7.7
2024-05-09T05:19:17.109Z,8.0
2024-05-09T05:20:24.150Z,8.0
2024-05-09T05:20:49.022Z,8.0
2024-05-09T05:21:20.087Z,8.0
2024-05-09T05:21:50.984Z,8.0
2024-05-09T05:22:21.981Z,6.8
2024-05-09T05:22:52.993Z,6.8
2024-05-09T05:23:24.146Z,6.8
2024-05-09T05:23:54.981Z,6.8
2024-05-09T05:24:25.995Z,6.8
2024-05-09T05:24:56.975Z,6.8
2024-05-09T05:25:27.983Z,6.9
2024-05-09T05:25:59.032Z,6.9
2024-05-09T05:26:29.991Z,6.9
2024-05-09T05:27:00.980Z,6.9
2024-05-09T05:27:31.996Z,6.9
2024-05-09T05:28:33.982Z,8.3
2024-05-09T05:29:36.032Z,8.3
2024-05-09T05:30:09.543Z,8.3
2024-05-09T05:30:38.029Z,8.3
2024-05-09T05:31:08.996Z,8.7
2024-05-09T05:31:40.046Z,8.7
2024-05-09T05:32:11.088Z,8.7
2024-05-09T05:32:42.094Z,8.7
2024-05-09T05:33:13.245Z,8.7
2024-05-09T05:33:44.055Z,8.7
2024-05-09T05:34:15.016Z,9.8
2024-05-09T05:35:48.037Z,9.8
2024-05-09T05:36:18.991Z,9.8
2024-05-09T05:36:50.002Z,9.8
2024-05-09T05:37:21.003Z,7.6
2024-05-09T05:37:52.011Z,7.6
2024-05-09T05:38:54.091Z,7.6
2024-05-09T05:39:24.998Z,7.6
2024-05-09T05:39:56.008Z,7.6
2024-05-09T05:40:28.689Z,7.1
2024-05-09T05:40:58.077Z,7.1
2024-05-09T05:41:29.160Z,7.1
2024-05-09T05:42:00.002Z,7.1
2024-05-09T05:42:31.003Z,7.1
2024-05-09T05:43:02.033Z,7.9
2024-05-09T05:43:32.994Z,7.9
2024-05-09T05:44:04.028Z,7.9
2024-05-09T05:44:35.059Z,7.9
2024-05-09T05:45:08.330Z,7.9
2024-05-09T05:45:37.024Z,7.9
2024-05-09T05:46:08.210Z,6.8
2024-05-09T05:46:39.000Z,6.8
2024-05-09T05:47:10.070Z,6.8
2024-05-09T05:47:41.279Z,6.8
2024-05-09T05:48:12.085Z,6.8
2024-05-09T05:48:43.123Z,6.8
2024-05-09T05:49:14.225Z,11.1
2024-05-09T05:49:45.032Z,11.1
2024-05-09T05:50:20.893Z,11.1
2024-05-09T05:50:47.078Z,11.1
2024-05-09T05:51:18.037Z,11.1
2024-05-09T05:52:20.008Z,7.9
2024-05-09T05:52:51.036Z,7.9
2024-05-09T05:53:22.063Z,7.9
2024-05-09T05:54:24.022Z,7.9
2024-05-09T05:54:55.020Z,7.9
2024-05-09T05:55:26.005Z,7.3
2024-05-09T05:56:28.072Z,7.3
2024-05-09T05:56:59.013Z,7.3
2024-05-09T05:57:30.023Z,7.3
2024-05-09T05:58:31.997Z,5.6
2024-05-09T05:59:03.038Z,5.6
2024-05-09T05:59:34.134Z,5.6
2024-05-09T06:00:37.911Z,5.6
2024-05-09T06:01:07.055Z,8.6
2024-05-09T06:01:38.061Z,8.6
2024-05-09T06:02:09.071Z,8.6
2024-05-09T06:02:40.155Z,8.6
2024-05-09T06:03:11.317Z,8.6
2024-05-09T06:03:42.160Z,8.6
2024-05-09T06:04:13.082Z,7.7
2024-05-09T06:04:44.051Z,7.7
2024-05-09T06:05:46.225Z,7.7
2024-05-09T06:06:17.015Z,7.7
2024-05-09T06:06:48.014Z,7.7
2024-05-09T06:07:19.012Z,6.6
2024-05-09T06:07:50.027Z,6.6
2024-05-09T06:08:21.041Z,6.6
2024-05-09T06:08:52.032Z,6.6
2024-05-09T06:09:23.016Z,6.6
2024-05-09T06:09:54.005Z,6.6
2024-05-09T06:10:26.183Z,6.8
2024-05-09T06:10:56.056Z,6.8
2024-05-09T06:11:58.109Z,6.8
2024-05-09T06:12:29.030Z,6.8
2024-05-09T06:13:31.055Z,7.1
2024-05-09T06:14:02.082Z,7.1
2024-05-09T06:14:33.040Z,7.1
2024-05-09T06:15:04.021Z,7.1
2024-05-09T06:15:35.061Z,7.1
2024-05-09T06:16:06.020Z,8.1
2024-05-09T06:16:37.033Z,8.1
2024-05-09T06:17:39.200Z,8.2
2024-05-09T06:18:10.717Z,8.2
2024-05-09T06:18:41.123Z,8.2
2024-05-09T06:19:12.086Z,5.5
2024-05-09T06:19:43.089Z,5.5
2024-05-09T06:20:19.893Z,5.5
2024-05-09T06:20:45.062Z,5.5
2024-05-09T06:21:16.090Z,5.5
2024-05-09T06:21:47.025Z,5.5
2024-05-09T06:22:18.027Z,5.5
2024-05-09T06:22:49.025Z,5.5
2024-05-09T06:23:20.049Z,5.6
2024-05-09T06:23:51.029Z,5.6
2024-05-09T06:24:22.024Z,5.6
2024-05-09T06:24:53.038Z,5.6
2024-05-09T06:25:24.115Z,8.2
2024-05-09T06:25:55.035Z,8.2
2024-05-09T06:26:26.053Z,8.2
2024-05-09T06:26:57.028Z,8.2
2024-05-09T06:27:28.041Z,8.2
2024-05-09T06:28:30.039Z,5.1
2024-05-09T06:29:01.048Z,7.5
2024-05-09T06:29:32.062Z,7.5
2024-05-09T06:30:03.722Z,7.5
2024-05-09T06:31:05.044Z,8.1
2024-05-09T06:31:36.033Z,8.1
2024-05-09T06:32:07.090Z,9.5
2024-05-09T06:32:38.238Z,9.5
2024-05-09T06:33:09.681Z,9.5
2024-05-09T06:33:40.214Z,9.5
2024-05-09T06:34:11.159Z,9.5
2024-05-09T06:34:42.158Z,9.5
2024-05-09T06:35:13.086Z,5.8
2024-05-09T06:35:44.335Z,5.8
2024-05-09T06:36:15.048Z,5.8
2024-05-09T06:37:17.041Z,5.8
2024-05-09T06:37:48.082Z,5.8
2024-05-09T06:38:50.086Z,7.4
2024-05-09T06:39:21.045Z,7.4
2024-05-09T06:39:52.164Z,7.4
2024-05-09T06:40:25.579Z,7.4
2024-05-09T06:40:54.105Z,7.4
2024-05-09T06:41:25.112Z,8.4
2024-05-09T06:41:56.044Z,8.4
2024-05-09T06:42:27.058Z,8.4
2024-05-09T06:43:29.048Z,8.4
2024-05-09T06:44:00.067Z,8.4
2024-05-09T06:44:31.067Z,6.7
2024-05-09T06:45:02.047Z,6.7
2024-05-09T06:45:33.053Z,6.7
2024-05-09T06:46:04.097Z,6.7
2024-05-09T06:46:35.107Z,6.7
2024-05-09T06:47:06.186Z,5.8
2024-05-09T06:47:37.153Z,5.8
2024-05-09T06:48:08.345Z,5.8
2024-05-09T06:48:39.227Z,5.8
2024-05-09T06:49:10.148Z,5.8
2024-05-09T06:49:41.115Z,5.8
2024-05-09T06:50:43.107Z,8.1
2024-05-09T06:51:14.150Z,8.1
2024-05-09T06:51:45.063Z,8.1
2024-05-09T06:52:16.091Z,8.1
2024-05-09T06:52:47.085Z,8.1
2024-05-09T06:53:18.130Z,6.3
2024-05-09T06:53:49.084Z,6.3
2024-05-09T06:54:20.078Z,6.3
2024-05-09T06:54:51.084Z,6.3
2024-05-09T06:55:22.074Z,6.3
2024-05-09T06:55:53.198Z,6.3
2024-05-09T06:56:24.112Z,7.4
2024-05-09T06:56:55.093Z,7.4
2024-05-09T06:57:26.086Z,7.4
2024-05-09T06:58:28.076Z,7.4
2024-05-09T06:58:59.138Z,7.4
2024-05-09T06:59:30.115Z,4.8
2024-05-09T07:00:01.133Z,4.8
2024-05-09T07:00:37.702Z,4.8
2024-05-09T07:01:03.097Z,4.8
2024-05-09T07:01:34.135Z,4.8
2024-05-09T07:02:05.107Z,13.3
2024-05-09T07:02:36.157Z,13.3
2024-05-09T07:03:07.235Z,13.3
2024-05-09T07:03:38.143Z,13.3
2024-05-09T07:04:09.332Z,13.3
2024-05-09T07:04:40.180Z,13.3
2024-05-09T07:05:42.188Z,5.7
2024-05-09T07:06:13.141Z,5.7
2024-05-09T07:06:44.088Z,5.7
2024-05-09T07:07:15.090Z,5.7
2024-05-09T07:07:46.124Z,5.7
2024-05-09T07:08:17.223Z,5.3
2024-05-09T07:08:48.917Z,5.3
2024-05-09T07:09:19.096Z,5.3
2024-05-09T07:09:50.437Z,5.3
2024-05-09T07:10:25.453Z,5.3
2024-05-09T07:10:52.189Z,5.3
2024-05-09T07:11:23.162Z,5.3
2024-05-09T07:11:54.185Z,5.3
2024-05-09T07:12:25.189Z,5.3
2024-05-09T07:13:27.089Z,5.3
2024-05-09T07:13:58.130Z,5.3
2024-05-09T07:14:29.238Z,6.7
2024-05-09T07:15:00.144Z,6.7
2024-05-09T07:15:31.089Z,6.7
2024-05-09T07:16:02.103Z,6.7
2024-05-09T07:16:33.098Z,6.7
2024-05-09T07:17:04.184Z,5.9
2024-05-09T07:17:35.146Z,5.9
2024-05-09T07:18:06.196Z,5.9
2024-05-09T07:18:37.256Z,5.9
2024-05-09T07:19:08.458Z,5.9
2024-05-09T07:20:13.959Z,6.2
2024-05-09T07:20:41.179Z,6.2
2024-05-09T07:21:12.134Z,6.2
2024-05-09T07:21:43.102Z,6.2
2024-05-09T07:22:14.104Z,6.2
2024-05-09T07:22:45.340Z,6.2
2024-05-09T07:23:16.397Z,5.7
2024-05-09T07:23:47.472Z,5.7
2024-05-09T07:24:18.118Z,5.7
2024-05-09T07:24:49.106Z,5.7
2024-05-09T07:25:20.107Z,5.7
2024-05-09T07:25:51.147Z,5.7
2024-05-09T07:26:22.140Z,6.8
2024-05-09T07:26:53.105Z,6.8
2024-05-09T07:28:26.109Z,6.8
2024-05-09T07:28:57.162Z,6.8
2024-05-09T07:29:59.121Z,5.2
2024-05-09T07:30:31.063Z,5.2
2024-05-09T07:31:01.115Z,5.2
2024-05-09T07:31:32.113Z,5.2
2024-05-09T07:32:03.148Z,6.4
2024-05-09T07:32:34.238Z,6.4
2024-05-09T07:33:05.385Z,6.4
2024-05-09T07:34:07.327Z,6.4
2024-05-09T07:34:38.206Z,6.4
2024-05-09T07:35:40.174Z,6.5
2024-05-09T07:36:11.114Z,6.5
2024-05-09T07:36:42.124Z,6.5
2024-05-09T07:37:13.115Z,6.5
2024-05-09T07:37:44.121Z,6.5
2024-05-09T07:38:15.190Z,9.4
2024-05-09T07:38:46.136Z,9.4
2024-05-09T07:39:17.129Z,9.4
2024-05-09T07:39:48.119Z,9.4
2024-05-09T07:40:24.761Z,9.4
2024-05-09T07:40:50.165Z,9.4
2024-05-09T07:41:52.118Z,8.3
2024-05-09T07:42:23.120Z,8.3
2024-05-09T07:43:25.115Z,8.3
2024-05-09T07:43:56.147Z,8.3
2024-05-09T07:44:27.149Z,5.4
2024-05-09T07:45:09.395Z,5.4
2024-05-09T07:45:39.624Z,5.4
2024-05-09T07:47:04.381Z,5.4
2024-05-09T07:49:43.947Z,4.6
2024-05-09T07:53:07.471Z,3.6
2024-05-09T07:53:20.879Z,3.6
2024-05-09T07:53:32.742Z,6.0
2024-05-09T07:53:47.085Z,6.0
2024-05-09T07:54:16.221Z,6.0
2024-05-09T07:54:47.162Z,6.0
2024-05-09T07:55:18.273Z,6.0
2024-05-09T07:55:49.238Z,6.0
2024-05-09T07:56:21.791Z,4.5
2024-05-09T07:56:51.272Z,4.5
2024-05-09T07:57:22.147Z,4.5
2024-05-09T07:57:53.127Z,4.5
2024-05-09T07:58:24.152Z,4.5
2024-05-09T07:58:55.125Z,4.5
2024-05-09T07:59:57.132Z,6.5
2024-05-09T08:00:30.979Z,6.5
2024-05-09T08:00:59.174Z,6.5
2024-05-09T08:02:01.243Z,5.6
2024-05-09T08:02:32.230Z,5.6
2024-05-09T08:03:34.358Z,5.6
2024-05-09T08:04:05.181Z,5.6
2024-05-09T08:04:36.193Z,5.6
2024-05-09T08:05:07.293Z,5.6
2024-05-09T08:05:38.221Z,5.6
2024-05-09T08:06:09.145Z,5.6
2024-05-09T08:06:40.201Z,5.6
2024-05-09T08:07:11.248Z,5.6
2024-05-09T08:07:42.144Z,5.6
2024-05-09T08:08:13.150Z,6.3
2024-05-09T08:08:44.143Z,6.3
2024-05-09T08:09:19.287Z,6.3
2024-05-09T08:09:46.165Z,6.3
2024-05-09T08:10:21.889Z,6.3
2024-05-09T08:11:19.188Z,6.3